Braemar — C6SY7 — position and weather

sailwx.info

Track history (hours):
 
Tides and Currents Weather Stations Pressure Air Temp Water Temp Dewpoint Dewpoint Depression Visibility Wind Speed Wind Dir Waves Ship Positions

Braemar

Last reported at 2018-Feb-11 15:08 UTC. Time now 2018-Feb-25 08:02 UTC.
Position N 00°10' W 050°53'.
Warning: this ship's position is 13 days out of date.

Length 196 m; draft 5.8 m.

Type: Passenger vessel. MMSI: 311541000.

Date/timePositionNaut miles runAvg speedWind from/ knotsBaromVisibWave heightAir tempDewpointWater temp
2018-Feb-11 15:08N 00°10' W 050°53'214.7
2018-Feb-11 15:00N 00°09' W 050°55'714.5
2018-Feb-11 14:30N 00°04' W 050°60'815.0
2018-Feb-11 14:00S 00°03' W 051°04'611.7
2018-Feb-11 13:30S 00°06' W 051°09'815.2
2018-Feb-11 13:00S 00°11' W 051°15'54714.5
2018-Feb-09 23:14S 03°07' W 059°53'314.9
2018-Feb-09 23:00S 03°09' W 059°56'310.4
2018-Feb-09 22:45S 03°10' W 059°58'5 6.1
2018-Feb-09 22:01S 03°08' W 060°02'0 0.0
2018-Feb-09 21:31S 03°08' W 060°02'0 0.0
2018-Feb-09 15:30S 03°08' W 060°02'0 0.0
2018-Feb-09 13:30S 03°08' W 060°02'0 0.0
2018-Feb-09 09:00S 03°08' W 060°02'0 0.0
2018-Feb-09 08:30S 03°08' W 060°02'0 0.0
2018-Feb-09 07:00S 03°08' W 060°02'0 0.0
2018-Feb-09 06:30S 03°08' W 060°02'0 0.0
2018-Feb-09 05:00S 03°08' W 060°02'1 0.1
2018-Feb-08 14:00S 03°09' W 060°01'  
2018-Feb-05 14:28S 00°14' W 051°19'1313.1
2018-Feb-05 13:30S 00°06' W 051°09'  
Track history (hours):
 
Tides and Currents Weather Stations Pressure Air Temp Water Temp Dewpoint Dewpoint Depression Visibility Wind Speed Wind Dir Waves Ship Positions

Braemar

Last reported at 2018-Feb-11 15:08 UTC. Time now 2018-Feb-25 08:02 UTC.
Position N 00°10' W 050°53'.
Warning: this ship's position is 13 days out of date.

Length 196 m; draft 5.8 m.

Type: Passenger vessel. MMSI: 311541000.

Date/timePositionNaut miles runAvg speedWind from/ knotsBaromVisibWave heightAir tempDewpointWater temp
2018-Feb-11 15:08N 00°10' W 050°53'214.7
2018-Feb-11 15:00N 00°09' W 050°55'714.5
2018-Feb-11 14:30N 00°04' W 050°60'815.0
2018-Feb-11 14:00S 00°03' W 051°04'611.7
2018-Feb-11 13:30S 00°06' W 051°09'815.2
2018-Feb-11 13:00S 00°11' W 051°15'54714.5
2018-Feb-09 23:14S 03°07' W 059°53'314.9
2018-Feb-09 23:00S 03°09' W 059°56'310.4
2018-Feb-09 22:45S 03°10' W 059°58'5 6.1
2018-Feb-09 22:01S 03°08' W 060°02'0 0.0
2018-Feb-09 21:31S 03°08' W 060°02'0 0.0
2018-Feb-09 15:30S 03°08' W 060°02'0 0.0
2018-Feb-09 13:30S 03°08' W 060°02'0 0.0
2018-Feb-09 09:00S 03°08' W 060°02'0 0.0
2018-Feb-09 08:30S 03°08' W 060°02'0 0.0
2018-Feb-09 07:00S 03°08' W 060°02'0 0.0
2018-Feb-09 06:30S 03°08' W 060°02'0 0.0
2018-Feb-09 05:00S 03°08' W 060°02'1 0.1
2018-Feb-08 14:00S 03°09' W 060°01'  
2018-Feb-05 14:28S 00°14' W 051°19'1313.1
2018-Feb-05 13:30S 00°06' W 051°09'  

Dump ship's entire track history